createdAt,value
2022-12-05T00:03:44.835Z,100353.41
2022-12-05T00:08:46.097Z,100359.31
2022-12-05T00:13:47.313Z,100364.03
2022-12-05T00:18:48.466Z,100366.38
2022-12-05T00:23:49.633Z,100366.06
2022-12-05T00:28:50.755Z,100371.25
2022-12-05T00:33:51.964Z,100371.34
2022-12-05T00:38:53.154Z,100372.19
2022-12-05T00:43:54.299Z,100363.41
2022-12-05T00:48:55.498Z,100364.34
2022-12-05T00:53:56.650Z,100364.63
2022-12-05T00:58:57.828Z,100353.72
2022-12-05T01:03:59.086Z,100359.59
2022-12-05T01:09:00.336Z,100359.59
2022-12-05T01:14:01.549Z,100366.69
2022-12-05T01:19:02.716Z,100370.78
2022-12-05T01:24:03.933Z,100369.44
2022-12-05T01:29:05.307Z,100377.69
2022-12-05T01:34:06.633Z,100384.78
2022-12-05T01:39:07.921Z,100382.94
2022-12-05T01:44:09.117Z,100386.59
2022-12-05T01:49:10.303Z,100388.88
2022-12-05T01:54:11.444Z,100390.88
2022-12-05T01:59:12.675Z,100396.38
2022-12-05T02:04:13.817Z,100395.53
2022-12-05T02:09:15.028Z,100397.03
2022-12-05T02:14:16.151Z,100396.72
2022-12-05T02:19:17.390Z,100394.34
2022-12-05T02:24:18.546Z,100398.56
2022-12-05T02:29:19.758Z,100396.19
2022-12-05T02:34:20.939Z,100391.97
2022-12-05T02:39:22.133Z,100394.34
2022-12-05T02:44:23.537Z,100394.56
2022-12-05T02:49:24.721Z,100393.28
2022-12-05T02:54:25.888Z,100404.69
2022-12-05T02:59:27.125Z,100411.66
2022-12-05T03:04:28.347Z,100411.22
2022-12-05T03:09:29.622Z,100414.84
2022-12-05T03:14:30.766Z,100422.63
2022-12-05T03:19:32.051Z,100421.16
2022-12-05T03:24:33.218Z,100423.03
2022-12-05T03:29:34.389Z,100430.25
2022-12-05T03:34:35.808Z,100435.91
2022-12-05T03:39:37.016Z,100433.94
2022-12-05T03:44:38.185Z,100430.03
2022-12-05T03:49:39.396Z,100431.75
2022-12-05T03:54:40.589Z,100422.25
2022-12-05T03:59:41.774Z,100429.72
2022-12-05T04:04:42.954Z,100432.97
2022-12-05T04:09:44.112Z,100431.50
2022-12-05T04:14:45.344Z,100431.59
2022-12-05T04:20:05.439Z,100451.31
2022-12-05T04:25:25.034Z,100443.22
2022-12-05T04:30:26.281Z,100446.25
2022-12-05T04:35:27.601Z,100441.63
2022-12-05T04:40:28.755Z,100450.63
2022-12-05T04:45:30.060Z,100455.81
2022-12-05T04:50:31.199Z,100449.84
2022-12-05T04:55:32.398Z,100447.63
2022-12-05T05:00:33.530Z,100450.13
2022-12-05T05:05:34.701Z,100452.84
2022-12-05T05:10:35.913Z,100450.69
2022-12-05T05:15:37.166Z,100458.13
2022-12-05T05:20:38.366Z,100462.22
2022-12-05T05:25:39.533Z,100478.44
2022-12-05T05:30:40.861Z,100473.38
2022-12-05T05:35:42.038Z,100474.63
2022-12-05T05:40:43.230Z,100483.84
2022-12-05T05:45:44.479Z,100482.97
2022-12-05T05:50:45.650Z,100487.56
2022-12-05T05:55:46.818Z,100484.06
2022-12-05T06:00:47.974Z,100481.16
2022-12-05T06:05:53.096Z,100488.56
2022-12-05T06:10:54.349Z,100500.19
2022-12-05T06:15:55.584Z,100501.75
2022-12-05T06:20:56.853Z,100496.91
2022-12-05T06:25:57.994Z,100499.72
2022-12-05T06:30:59.140Z,100501.41
2022-12-05T06:36:00.323Z,100509.41
2022-12-05T06:41:01.482Z,100508.06
2022-12-05T06:46:02.771Z,100516.81
2022-12-05T06:51:04.001Z,100518.63
2022-12-05T06:56:05.170Z,100516.47
2022-12-05T07:01:25.326Z,100523.47
2022-12-05T07:06:26.616Z,100526.06
2022-12-05T07:11:27.861Z,100528.66
2022-12-05T07:16:29.155Z,100537.41
2022-12-05T07:21:30.424Z,100543.59
2022-12-05T07:26:31.570Z,100554.16
2022-12-05T07:31:34.007Z,100544.41
2022-12-05T07:36:35.328Z,100550.91
2022-12-05T07:41:36.577Z,100560.03
2022-12-05T07:46:37.796Z,100568.13
2022-12-05T07:51:39.010Z,100573.44
2022-12-05T07:56:46.153Z,100571.19
2022-12-05T08:01:48.945Z,100571.53
2022-12-05T08:06:50.138Z,100576.81
2022-12-05T08:11:52.967Z,100578.97
2022-12-05T08:16:54.347Z,100589.09
2022-12-05T08:21:55.654Z,100584.16
2022-12-05T08:26:56.833Z,100593.94
2022-12-05T08:31:58.666Z,100607.44
2022-12-05T08:36:59.865Z,100607.44
2022-12-05T08:42:01.058Z,100617.38
2022-12-05T08:47:02.293Z,100629.28
2022-12-05T08:52:03.471Z,100634.69
2022-12-05T08:57:04.632Z,100626.13
2022-12-05T09:02:05.819Z,100620.38
2022-12-05T09:07:08.172Z,100624.91
2022-12-05T09:12:09.401Z,100633.91
2022-12-05T09:17:10.602Z,100626.78
2022-12-05T09:22:11.746Z,100634.69
2022-12-05T09:27:12.894Z,100639.88
2022-12-05T09:32:14.130Z,100640.59
2022-12-05T09:37:37.972Z,100634.03
2022-12-05T09:42:39.807Z,100638.72
2022-12-05T09:47:40.997Z,100640.22
2022-12-05T09:52:42.186Z,100644.50
2022-12-05T09:57:43.370Z,100642.16
2022-12-05T10:02:44.529Z,100631.91
2022-12-05T10:07:45.699Z,100628.31
2022-12-05T10:12:46.965Z,100634.59
2022-12-05T10:17:48.129Z,100629.78
2022-12-05T10:22:49.368Z,100640.25
2022-12-05T10:27:50.609Z,100643.53
2022-12-05T10:32:51.863Z,100652.53
2022-12-05T10:37:53.110Z,100648.59
2022-12-05T10:42:54.375Z,100650.53
2022-12-05T10:47:55.569Z,100643.97
2022-12-05T10:52:56.854Z,100643.19
2022-12-05T10:57:58.011Z,100644.06
2022-12-05T11:02:59.216Z,100635.63
2022-12-05T11:08:00.413Z,100638.78
2022-12-05T11:13:02.200Z,100641.25
2022-12-05T11:18:05.256Z,100641.72
2022-12-05T11:23:06.500Z,100632.81
2022-12-05T11:28:07.660Z,100631.22
2022-12-05T11:33:08.839Z,100628.63
2022-12-05T11:38:09.966Z,100638.56
2022-12-05T11:43:11.206Z,100625.03
2022-12-05T11:48:12.334Z,100637.66
2022-12-05T11:53:13.459Z,100629.38
2022-12-05T11:58:14.637Z,100620.84
2022-12-05T12:03:15.873Z,100615.75
2022-12-05T12:08:17.235Z,100621.69
2022-12-05T12:13:18.498Z,100629.78
2022-12-05T12:18:19.655Z,100626.97
2022-12-05T12:23:20.783Z,100623.50
2022-12-05T12:28:21.923Z,100627.78
2022-12-05T12:33:27.216Z,100622.91
2022-12-05T12:38:28.818Z,100620.13
2022-12-05T12:43:52.727Z,100619.09
2022-12-05T12:48:51.148Z,100622.03
2022-12-05T12:53:52.486Z,100616.28
2022-12-05T12:58:53.642Z,100617.28
2022-12-05T13:03:57.378Z,100614.91
2022-12-05T13:08:58.628Z,100619.66
2022-12-05T13:13:59.781Z,100612.53
2022-12-05T13:19:00.939Z,100615.13
2022-12-05T13:24:04.904Z,100617.31
2022-12-05T13:29:06.201Z,100609.34
2022-12-05T13:34:07.412Z,100618.44
2022-12-05T13:39:27.426Z,100615.53
2022-12-05T13:44:28.580Z,100621.13
2022-12-05T13:49:29.726Z,100633.88
2022-12-05T13:54:31.131Z,100627.38
2022-12-05T13:59:32.284Z,100635.38
2022-12-05T14:04:33.458Z,100634.81
2022-12-05T14:09:34.654Z,100632.31
2022-12-05T14:14:35.815Z,100635.72
2022-12-05T14:19:36.989Z,100640.00
2022-12-05T14:24:38.189Z,100633.78
2022-12-05T14:29:39.888Z,100637.97
2022-12-05T14:34:41.104Z,100639.75
2022-12-05T14:39:42.304Z,100637.88
2022-12-05T14:44:43.479Z,100644.06
2022-12-05T14:49:48.482Z,100638.31
2022-12-05T14:54:49.841Z,100640.09
2022-12-05T14:59:51.409Z,100647.09
2022-12-05T15:04:52.676Z,100653.56
2022-12-05T15:09:53.907Z,100658.84
2022-12-05T15:14:55.097Z,100657.72
2022-12-05T15:19:57.332Z,100666.19
2022-12-05T15:24:59.003Z,100660.06
2022-12-05T15:30:00.372Z,100661.44
2022-12-05T15:35:02.198Z,100671.69
2022-12-05T15:40:03.984Z,100676.88
2022-12-05T15:45:05.156Z,100676.75
2022-12-05T15:50:06.444Z,100677.09
2022-12-05T15:55:07.594Z,100691.16
2022-12-05T16:00:08.882Z,100683.94
2022-12-05T16:05:10.091Z,100698.59
2022-12-05T16:10:11.250Z,100698.13
2022-12-05T16:15:12.397Z,100697.00
2022-12-05T16:20:13.659Z,100696.41
2022-12-05T16:25:15.285Z,100701.16
2022-12-05T16:30:16.483Z,100707.00
2022-12-05T16:35:17.688Z,100712.88
2022-12-05T16:40:18.993Z,100718.16
2022-12-05T16:45:20.119Z,100715.78
2022-12-05T16:50:21.262Z,100723.31
2022-12-05T16:55:22.394Z,100722.50
2022-12-05T17:00:23.592Z,100730.69
2022-12-05T17:05:24.850Z,100736.63
2022-12-05T17:10:26.237Z,100730.63
2022-12-05T17:15:27.376Z,100730.16
2022-12-05T17:20:28.589Z,100731.84
2022-12-05T17:25:30.942Z,100738.41
2022-12-05T17:30:34.188Z,100738.75
2022-12-05T17:35:36.157Z,100730.78
2022-12-05T17:40:37.355Z,100737.66
2022-12-05T17:45:38.490Z,100750.47
2022-12-05T17:50:39.642Z,100743.81
2022-12-05T17:55:41.261Z,100748.31
2022-12-05T18:00:42.476Z,100745.28
2022-12-05T18:05:43.717Z,100746.88
2022-12-05T18:10:44.892Z,100749.47
2022-12-05T18:15:46.015Z,100749.25
2022-12-05T18:20:47.223Z,100756.00
2022-12-05T18:25:48.347Z,100756.38
2022-12-05T18:30:49.490Z,100755.22
2022-12-05T18:35:50.647Z,100756.69
2022-12-05T18:40:51.784Z,100763.19
2022-12-05T18:45:53.086Z,100766.00
2022-12-05T18:50:54.380Z,100770.47
2022-12-05T18:56:20.622Z,100774.44
2022-12-05T19:01:16.807Z,100769.00
2022-12-05T19:06:18.040Z,100762.28
2022-12-05T19:11:19.935Z,100775.63
2022-12-05T19:16:21.173Z,100766.88
2022-12-05T19:21:22.425Z,100774.72
2022-12-05T19:26:23.836Z,100778.22
2022-12-05T19:31:25.073Z,100793.75
2022-12-05T19:36:26.306Z,100790.72
2022-12-05T19:41:27.533Z,100797.25
2022-12-05T19:46:29.684Z,100805.63
2022-12-05T19:51:31.065Z,100794.75
2022-12-05T19:56:32.397Z,100800.25
2022-12-05T20:01:33.657Z,100796.69
2022-12-05T20:06:34.978Z,100791.44
2022-12-05T20:11:36.173Z,100787.31
2022-12-05T20:16:37.490Z,100789.44
2022-12-05T20:21:39.946Z,100784.03
2022-12-05T20:26:41.154Z,100783.53
2022-12-05T20:31:42.346Z,100780.59
2022-12-05T20:36:43.573Z,100792.97
2022-12-05T20:41:44.792Z,100790.94
2022-12-05T20:46:46.115Z,100793.53
2022-12-05T20:51:47.483Z,100787.13
2022-12-05T20:56:49.095Z,100787.06
2022-12-05T21:01:50.294Z,100787.66
2022-12-05T21:06:51.639Z,100783.81
2022-12-05T21:11:52.897Z,100788.78
2022-12-05T21:16:54.219Z,100784.78
2022-12-05T21:21:55.891Z,100786.34
2022-12-05T21:26:57.124Z,100790.50
2022-12-05T21:31:59.542Z,100787.25
2022-12-05T21:37:01.106Z,100777.16
2022-12-05T21:42:02.254Z,100778.50
2022-12-05T21:47:03.467Z,100773.19
2022-12-05T21:52:04.658Z,100782.63
2022-12-05T21:57:05.820Z,100776.75
2022-12-05T22:02:07.059Z,100775.56
2022-12-05T22:07:08.265Z,100776.91
2022-12-05T22:12:09.422Z,100779.19
2022-12-05T22:17:10.631Z,100779.28
2022-12-05T22:22:11.839Z,100783.44
2022-12-05T22:27:13.097Z,100779.50
2022-12-05T22:32:14.300Z,100771.88
2022-12-05T22:37:15.422Z,100776.38
2022-12-05T22:42:16.602Z,100780.13
2022-12-05T22:47:17.739Z,100774.13
2022-12-05T22:52:18.944Z,100779.91
2022-12-05T22:57:20.142Z,100785.66
2022-12-05T23:02:21.346Z,100786.09
2022-12-05T23:07:22.559Z,100771.34
2022-12-05T23:12:23.717Z,100766.38
2022-12-05T23:17:24.895Z,100762.78
2022-12-05T23:22:26.096Z,100753.78
2022-12-05T23:27:27.270Z,100749.41
2022-12-05T23:32:28.431Z,100757.97
2022-12-05T23:37:29.641Z,100747.16
2022-12-05T23:42:30.811Z,100747.38
2022-12-05T23:47:31.950Z,100743.00
2022-12-05T23:52:33.107Z,100736.03
2022-12-05T23:57:34.540Z,100703.28
